Terminal Aerodrome Forecast
Issued by NWS

Current Version | Previous Version | Graphics & Text | Print | Product List | Glossary On
Versions: 1 2 3 4 5 6 7 8 9 10 11 12 13 14 15 16 17 18 19
301
FTUS41 KILN 202145 AAA
TAFLCK
TAF AMD
KLCK 202145Z 2022/2118 14007KT P6SM VCTS OVC015CB
      TEMPO 2022/2101 5SM -SHRA BR OVC008
     FM210100 VRB03KT 4SM -SHRA BR OVC008
     FM210400 36005KT 5SM BR OVC007
     FM211000 35009KT 5SM BR OVC015=

USA.gov is the U.S. government's official web portal to all federal, state and local government web resources and services.